createdAt,value
2023-05-19T00:03:25.223Z,11.13
2023-05-19T00:08:30.916Z,11.10
2023-05-19T00:13:33.260Z,11.08
2023-05-19T00:18:34.930Z,10.85
2023-05-19T00:23:36.605Z,10.91
2023-05-19T00:28:38.241Z,10.90
2023-05-19T00:33:40.152Z,10.93
2023-05-19T00:38:41.884Z,10.93
2023-05-19T00:43:43.596Z,10.90
2023-05-19T00:48:45.960Z,10.86
2023-05-19T00:53:51.068Z,10.86
2023-05-19T00:58:52.943Z,10.78
2023-05-19T01:08:58.644Z,10.76
2023-05-19T01:14:00.677Z,10.73
2023-05-19T01:19:43.577Z,10.70
2023-05-19T01:25:11.425Z,10.68
2023-05-19T01:30:25.551Z,10.63
2023-05-19T01:35:28.682Z,10.65
2023-05-19T01:40:32.659Z,10.62
2023-05-19T01:45:34.677Z,10.60
2023-05-19T01:50:36.470Z,10.55
2023-05-19T01:55:50.795Z,10.54
2023-05-19T02:01:01.330Z,10.52
2023-05-19T02:06:25.005Z,10.47
2023-05-19T02:11:59.479Z,10.45
2023-05-19T02:17:03.310Z,10.47
2023-05-19T02:22:05.151Z,10.43
2023-05-19T02:27:06.928Z,10.38
2023-05-19T02:32:09.114Z,10.37
2023-05-19T02:37:15.541Z,10.31
2023-05-19T02:42:18.438Z,10.33
2023-05-19T02:47:20.185Z,10.29
2023-05-19T02:52:21.915Z,10.24
2023-05-19T02:57:24.197Z,10.20
2023-05-19T03:02:25.922Z,10.19
2023-05-19T03:07:27.888Z,10.06
2023-05-19T03:12:29.963Z,10.03
2023-05-19T03:17:34.222Z,10.05
2023-05-19T03:22:38.746Z,10.04
2023-05-19T03:27:40.624Z,9.96
2023-05-19T03:32:42.462Z,9.95
2023-05-19T03:37:44.642Z,9.96
2023-05-19T03:42:46.510Z,9.94
2023-05-19T03:47:48.575Z,9.90
2023-05-19T03:53:04.031Z,9.91
2023-05-19T03:58:14.632Z,9.93
2023-05-19T04:03:18.552Z,9.86
2023-05-19T04:08:20.512Z,9.85
2023-05-19T04:13:22.191Z,9.89
2023-05-19T04:18:23.948Z,9.94
2023-05-19T04:23:25.722Z,9.96
2023-05-19T04:28:27.567Z,9.96
2023-05-19T04:33:29.857Z,9.98
2023-05-19T04:38:33.538Z,10.06
2023-05-19T04:43:36.594Z,10.12
2023-05-19T04:48:38.327Z,10.18
2023-05-19T04:53:41.028Z,10.23
2023-05-19T04:58:45.258Z,10.24
2023-05-19T05:03:51.364Z,10.31
2023-05-19T05:08:53.346Z,10.37
2023-05-19T05:13:58.190Z,10.45
2023-05-19T05:19:02.957Z,10.55
2023-05-19T05:24:05.399Z,10.53
2023-05-19T05:29:09.371Z,10.55
2023-05-19T05:34:11.305Z,10.64
2023-05-19T05:39:13.245Z,10.69
2023-05-19T05:44:18.265Z,10.63
2023-05-19T05:49:20.759Z,10.81
2023-05-19T05:54:23.266Z,10.77
2023-05-19T05:59:26.403Z,10.91
2023-05-19T06:04:28.239Z,10.92
2023-05-19T06:09:30.433Z,10.95
2023-05-19T06:14:32.222Z,10.93
2023-05-19T06:19:49.395Z,10.93
2023-05-19T06:24:51.503Z,10.83
2023-05-19T06:29:54.430Z,10.85
2023-05-19T06:34:56.296Z,10.86
2023-05-19T06:39:58.881Z,11.09
2023-05-19T06:45:01.499Z,11.19
2023-05-19T06:50:03.838Z,11.09
2023-05-19T06:55:09.199Z,11.06
2023-05-19T07:00:15.276Z,11.29
2023-05-19T07:05:22.470Z,11.43
2023-05-19T07:10:28.787Z,11.61
2023-05-19T07:15:31.497Z,11.95
2023-05-19T07:20:34.372Z,12.19
2023-05-19T07:25:36.473Z,12.18
2023-05-19T07:30:39.109Z,12.39
2023-05-19T07:35:41.111Z,12.59
2023-05-19T07:40:42.919Z,12.70
2023-05-19T07:45:45.183Z,13.21
2023-05-19T07:50:50.574Z,13.43
2023-05-19T07:55:52.192Z,13.55
2023-05-19T08:00:53.970Z,13.92
2023-05-19T08:05:55.720Z,14.20
2023-05-19T08:10:57.453Z,14.20
2023-05-19T08:16:00.124Z,14.44
2023-05-19T08:21:02.100Z,14.57
2023-05-19T08:26:03.869Z,14.84
2023-05-19T08:31:06.003Z,14.86
2023-05-19T08:36:07.852Z,15.15
2023-05-19T08:41:09.837Z,15.45
2023-05-19T08:46:19.100Z,15.59
2023-05-19T08:51:32.030Z,15.68
2023-05-19T08:56:34.065Z,15.82
2023-05-19T09:06:45.267Z,16.14
2023-05-19T09:11:48.607Z,16.30
2023-05-19T09:16:52.800Z,16.34
2023-05-19T09:22:01.416Z,16.58
2023-05-19T09:27:03.195Z,16.66
2023-05-19T09:32:06.081Z,16.92
2023-05-19T09:37:08.179Z,17.15
2023-05-19T09:42:14.215Z,16.98
2023-05-19T09:47:19.957Z,17.42
2023-05-19T09:52:22.261Z,17.18
2023-05-19T09:57:29.796Z,16.83
2023-05-19T10:02:32.111Z,16.63
2023-05-19T10:07:34.745Z,17.08
2023-05-19T10:12:38.015Z,16.77
2023-05-19T10:17:40.955Z,17.36
2023-05-19T10:22:44.619Z,17.72
2023-05-19T10:28:11.618Z,18.07
2023-05-19T10:33:19.848Z,18.57
2023-05-19T10:38:48.485Z,17.90
2023-05-19T10:44:09.279Z,18.00
2023-05-19T10:49:11.024Z,18.15
2023-05-19T10:54:17.272Z,18.16
2023-05-19T10:59:33.370Z,18.47
2023-05-19T11:04:52.005Z,18.76
2023-05-19T11:09:53.958Z,18.96
2023-05-19T11:14:55.960Z,19.29
2023-05-19T11:19:59.369Z,19.26
2023-05-19T11:25:01.131Z,19.21
2023-05-19T11:30:06.515Z,19.50
2023-05-19T11:35:10.178Z,19.26
2023-05-19T11:40:18.001Z,19.72
2023-05-19T11:45:27.873Z,19.73
2023-05-19T11:50:33.418Z,19.82
2023-05-19T11:55:35.073Z,19.86
2023-05-19T12:00:39.962Z,19.88
2023-05-19T12:05:48.927Z,19.77
2023-05-19T12:10:52.569Z,19.96
2023-05-19T12:15:54.421Z,20.42
2023-05-19T12:20:56.248Z,19.73
2023-05-19T12:25:59.525Z,19.81
2023-05-19T12:31:02.834Z,20.80
2023-05-19T12:36:05.694Z,20.72
2023-05-19T12:41:07.618Z,20.44
2023-05-19T12:46:13.295Z,20.76
2023-05-19T12:51:21.138Z,20.58
2023-05-19T12:56:27.033Z,20.31
2023-05-19T13:01:29.688Z,20.36
2023-05-19T13:06:33.076Z,20.91
2023-05-19T13:11:35.160Z,21.28
2023-05-19T13:16:38.266Z,21.43
2023-05-19T13:21:39.953Z,21.42
2023-05-19T13:26:43.390Z,20.94
2023-05-19T13:31:45.103Z,20.83
2023-05-19T13:36:49.544Z,20.54
2023-05-19T13:41:51.269Z,21.03
2023-05-19T13:46:52.925Z,20.79
2023-05-19T13:51:58.354Z,20.76
2023-05-19T13:57:00.376Z,20.69
2023-05-19T14:02:06.540Z,20.81
2023-05-19T14:07:09.682Z,20.98
2023-05-19T14:12:12.253Z,21.10
2023-05-19T14:17:13.921Z,20.79
2023-05-19T14:22:16.054Z,20.79
2023-05-19T14:27:18.007Z,20.81
2023-05-19T14:32:19.683Z,20.67
2023-05-19T14:37:21.368Z,20.27
2023-05-19T14:42:23.065Z,20.51
2023-05-19T14:47:27.104Z,20.55
2023-05-19T14:52:29.034Z,20.86
2023-05-19T14:57:30.652Z,21.03
2023-05-19T15:02:32.376Z,20.99
2023-05-19T15:07:34.180Z,20.92
2023-05-19T15:12:35.820Z,20.69
2023-05-19T15:17:37.451Z,20.57
2023-05-19T15:22:39.293Z,20.58
2023-05-19T15:27:40.969Z,20.41
2023-05-19T15:32:42.633Z,20.81
2023-05-19T15:37:44.287Z,20.37
2023-05-19T15:42:46.447Z,20.21
2023-05-19T15:47:48.926Z,20.01
2023-05-19T15:52:50.647Z,20.04
2023-05-19T15:57:52.255Z,20.22
2023-05-19T16:02:53.966Z,20.13
2023-05-19T16:07:56.265Z,20.37
2023-05-19T16:12:57.931Z,20.28
2023-05-19T16:18:01.942Z,20.38
2023-05-19T16:23:03.653Z,20.37
2023-05-19T16:28:05.672Z,20.30
2023-05-19T16:33:07.334Z,19.77
2023-05-19T16:38:09.016Z,19.81
2023-05-19T16:43:10.952Z,19.60
2023-05-19T16:48:12.675Z,19.26
2023-05-19T16:53:14.465Z,18.77
2023-05-19T16:58:18.170Z,18.93
2023-05-19T17:03:21.738Z,18.98
2023-05-19T17:08:23.612Z,18.67
2023-05-19T17:13:28.732Z,18.19
2023-05-19T17:18:31.364Z,18.28
2023-05-19T17:23:33.141Z,17.93
2023-05-19T17:28:34.852Z,18.04
2023-05-19T17:33:36.855Z,17.69
2023-05-19T17:38:40.397Z,17.92
2023-05-19T17:43:42.389Z,17.88
2023-05-19T17:48:44.239Z,17.55
2023-05-19T17:53:48.243Z,17.37
2023-05-19T17:58:50.641Z,17.31
2023-05-19T18:03:52.708Z,17.14
2023-05-19T18:08:59.400Z,17.01
2023-05-19T18:14:01.441Z,17.04
2023-05-19T18:19:03.592Z,16.84
2023-05-19T18:24:05.958Z,16.99
2023-05-19T18:29:17.165Z,16.87
2023-05-19T18:34:18.804Z,17.06
2023-05-19T18:39:21.189Z,16.67
2023-05-19T18:44:22.821Z,16.97
2023-05-19T18:49:25.100Z,17.07
2023-05-19T18:54:26.924Z,16.81
2023-05-19T18:59:28.621Z,16.65
2023-05-19T19:04:31.957Z,16.73
2023-05-19T19:09:34.228Z,16.77
2023-05-19T19:14:36.178Z,16.48
2023-05-19T19:19:37.859Z,16.35
2023-05-19T19:24:39.629Z,16.16
2023-05-19T19:29:41.614Z,15.95
2023-05-19T19:34:43.247Z,15.94
2023-05-19T19:39:45.307Z,15.87
2023-05-19T19:44:54.272Z,15.86
2023-05-19T19:49:56.164Z,15.76
2023-05-19T19:54:57.982Z,15.65
2023-05-19T20:00:07.636Z,15.58
2023-05-19T20:05:10.034Z,15.62
2023-05-19T20:10:11.800Z,15.54
2023-05-19T20:15:13.488Z,15.35
2023-05-19T20:20:15.971Z,15.51
2023-05-19T20:25:18.419Z,15.50
2023-05-19T20:30:21.376Z,15.42
2023-05-19T20:35:23.724Z,15.21
2023-05-19T20:40:25.501Z,15.20
2023-05-19T20:45:27.391Z,15.10
2023-05-19T20:50:31.368Z,15.12
2023-05-19T20:55:33.835Z,14.95
2023-05-19T21:00:36.012Z,14.88
2023-05-19T21:05:37.922Z,14.79
2023-05-19T21:10:39.632Z,14.86
2023-05-19T21:15:41.338Z,14.68
2023-05-19T21:20:43.010Z,14.55
2023-05-19T21:25:45.389Z,14.48
2023-05-19T21:30:49.459Z,14.58
2023-05-19T21:35:51.188Z,14.32
2023-05-19T21:40:53.163Z,14.31
2023-05-19T21:45:54.884Z,14.32
2023-05-19T21:50:57.202Z,14.31
2023-05-19T21:55:59.586Z,14.28
2023-05-19T22:01:01.586Z,14.22
2023-05-19T22:06:03.366Z,14.16
2023-05-19T22:11:05.324Z,14.17
2023-05-19T22:16:07.777Z,14.03
2023-05-19T22:21:09.490Z,14.01
2023-05-19T22:26:11.365Z,13.98
2023-05-19T22:31:13.024Z,13.93
2023-05-19T22:36:20.502Z,14.08
2023-05-19T22:41:25.171Z,14.02
2023-05-19T22:46:27.146Z,13.96
2023-05-19T22:51:28.970Z,13.75
2023-05-19T22:56:30.620Z,13.80
2023-05-19T23:01:32.301Z,13.65
2023-05-19T23:06:33.983Z,13.65
2023-05-19T23:11:36.019Z,13.64
2023-05-19T23:16:37.795Z,13.54
2023-05-19T23:21:40.799Z,13.46
2023-05-19T23:26:48.817Z,13.52
2023-05-19T23:31:50.512Z,13.44
2023-05-19T23:36:52.197Z,13.42
2023-05-19T23:41:53.921Z,13.40
2023-05-19T23:46:55.663Z,13.39
2023-05-19T23:51:57.336Z,13.34
2023-05-19T23:56:59.403Z,13.23
